sensor_id;sensor_type;location;lat;lon;timestamp;pressure;altitude;pressure_sealevel;temperature;humidity
41703;BME280;861;48.808;9.006;2023-04-07T00:01:38;97086.13;;;8.98;74.25
41703;BME280;861;48.808;9.006;2023-04-07T00:04:05;97083.66;;;9.26;73.19
41703;BME280;861;48.808;9.006;2023-04-07T00:06:31;97077.47;;;9.29;72.51
41703;BME280;861;48.808;9.006;2023-04-07T00:08:58;97077.94;;;9.38;72.99
41703;BME280;861;48.808;9.006;2023-04-07T00:11:24;97085.41;;;9.48;72.17
41703;BME280;861;48.808;9.006;2023-04-07T00:13:51;97078.28;;;9.33;72.45
41703;BME280;861;48.808;9.006;2023-04-07T00:16:18;97075.41;;;9.12;73.14
41703;BME280;861;48.808;9.006;2023-04-07T00:18:44;97077.34;;;9.15;72.82
41703;BME280;861;48.808;9.006;2023-04-07T00:21:11;97073.13;;;9.21;72.23
41703;BME280;861;48.808;9.006;2023-04-07T00:23:38;97066.66;;;8.92;73.78
41703;BME280;861;48.808;9.006;2023-04-07T00:26:04;97067.88;;;8.58;75.04
41703;BME280;861;48.808;9.006;2023-04-07T00:28:31;97067.41;;;8.89;73.81
41703;BME280;861;48.808;9.006;2023-04-07T00:30:57;97060.97;;;9.08;73.46
41703;BME280;861;48.808;9.006;2023-04-07T00:33:24;97057.25;;;9.26;72.97
41703;BME280;861;48.808;9.006;2023-04-07T00:35:51;97058.56;;;8.96;74.39
41703;BME280;861;48.808;9.006;2023-04-07T00:38:20;97057.25;;;8.83;75.44
41703;BME280;861;48.808;9.006;2023-04-07T00:40:46;97056.88;;;9.24;75.01
41703;BME280;861;48.808;9.006;2023-04-07T00:43:13;97047.25;;;9.38;74.44
41703;BME280;861;48.808;9.006;2023-04-07T00:45:39;97048.75;;;9.28;74.44
41703;BME280;861;48.808;9.006;2023-04-07T00:48:06;97043.47;;;9.49;73.97
41703;BME280;861;48.808;9.006;2023-04-07T00:50:33;97031.97;;;9.73;73.34
41703;BME280;861;48.808;9.006;2023-04-07T00:52:59;97030.72;;;9.60;73.74
41703;BME280;861;48.808;9.006;2023-04-07T00:55:27;97033.31;;;9.43;73.28
41703;BME280;861;48.808;9.006;2023-04-07T00:57:54;97033.84;;;9.11;75.41
41703;BME280;861;48.808;9.006;2023-04-07T01:00:21;97026.28;;;9.34;73.95
41703;BME280;861;48.808;9.006;2023-04-07T01:03:19;97022.63;;;9.67;72.65
41703;BME280;861;48.808;9.006;2023-04-07T01:06:01;97015.69;;;9.77;72.69
41703;BME280;861;48.808;9.006;2023-04-07T01:08:49;97011.41;;;9.79;72.74
41703;BME280;861;48.808;9.006;2023-04-07T01:14:18;97015.97;;;9.58;72.99
41703;BME280;861;48.808;9.006;2023-04-07T01:16:50;97002.25;;;9.40;73.97
41703;BME280;861;48.808;9.006;2023-04-07T01:19:39;97001.19;;;9.59;73.33
41703;BME280;861;48.808;9.006;2023-04-07T01:22:16;96997.72;;;9.62;73.50
41703;BME280;861;48.808;9.006;2023-04-07T01:25:34;96993.75;;;9.45;73.90
41703;BME280;861;48.808;9.006;2023-04-07T01:32:01;96985.91;;;8.86;75.56
41703;BME280;861;48.808;9.006;2023-04-07T01:34:32;96986.19;;;9.17;74.43
41703;BME280;861;48.808;9.006;2023-04-07T01:37:03;96989.22;;;8.65;76.46
41703;BME280;861;48.808;9.006;2023-04-07T01:39:33;96981.41;;;8.57;77.78
41703;BME280;861;48.808;9.006;2023-04-07T01:42:06;96985.47;;;8.77;76.37
41703;BME280;861;48.808;9.006;2023-04-07T01:44:35;96988.66;;;8.89;76.06
41703;BME280;861;48.808;9.006;2023-04-07T01:47:05;96984.06;;;8.93;75.28
41703;BME280;861;48.808;9.006;2023-04-07T01:49:35;96977.19;;;8.63;75.85
41703;BME280;861;48.808;9.006;2023-04-07T01:52:04;96976.38;;;8.59;76.66
41703;BME280;861;48.808;9.006;2023-04-07T01:54:34;96972.19;;;8.65;76.93
41703;BME280;861;48.808;9.006;2023-04-07T01:57:00;96969.28;;;8.91;75.22
41703;BME280;861;48.808;9.006;2023-04-07T01:59:28;96966.28;;;8.59;76.07
41703;BME280;861;48.808;9.006;2023-04-07T02:01:55;96968.50;;;8.87;75.17
41703;BME280;861;48.808;9.006;2023-04-07T02:04:51;96968.38;;;8.76;75.80
41703;BME280;861;48.808;9.006;2023-04-07T02:10:14;96956.56;;;8.55;77.00
41703;BME280;861;48.808;9.006;2023-04-07T02:12:45;96964.28;;;8.49;76.45
41703;BME280;861;48.808;9.006;2023-04-07T02:15:15;96959.31;;;8.22;77.62
41703;BME280;861;48.808;9.006;2023-04-07T02:17:50;96955.25;;;8.05;77.56
41703;BME280;861;48.808;9.006;2023-04-07T02:20:20;96951.28;;;8.29;76.50
41703;BME280;861;48.808;9.006;2023-04-07T02:22:48;96948.16;;;8.27;77.43
41703;BME280;861;48.808;9.006;2023-04-07T02:25:31;96948.16;;;8.27;75.79
41703;BME280;861;48.808;9.006;2023-04-07T02:27:59;96943.66;;;8.45;76.09
41703;BME280;861;48.808;9.006;2023-04-07T02:30:27;96951.03;;;8.44;75.43
41703;BME280;861;48.808;9.006;2023-04-07T02:32:54;96947.66;;;8.58;76.41
41703;BME280;861;48.808;9.006;2023-04-07T02:35:21;96936.53;;;8.66;75.09
41703;BME280;861;48.808;9.006;2023-04-07T02:37:48;96936.53;;;8.66;74.87
41703;BME280;861;48.808;9.006;2023-04-07T02:40:15;96937.81;;;8.83;74.57
41703;BME280;861;48.808;9.006;2023-04-07T02:42:42;96931.47;;;8.65;74.14
41703;BME280;861;48.808;9.006;2023-04-07T02:45:10;96933.44;;;8.68;75.17
41703;BME280;861;48.808;9.006;2023-04-07T02:47:38;96934.91;;;8.58;74.98
41703;BME280;861;48.808;9.006;2023-04-07T02:50:06;96930.78;;;8.78;73.98
41703;BME280;861;48.808;9.006;2023-04-07T02:52:33;96930.09;;;8.88;73.99
41703;BME280;861;48.808;9.006;2023-04-07T02:55:00;96928.63;;;8.98;73.55
41703;BME280;861;48.808;9.006;2023-04-07T02:57:26;96929.00;;;9.00;73.51
41703;BME280;861;48.808;9.006;2023-04-07T02:59:53;96931.38;;;9.05;73.54
41703;BME280;861;48.808;9.006;2023-04-07T03:02:22;96926.31;;;9.03;73.68
41703;BME280;861;48.808;9.006;2023-04-07T03:04:51;96922.94;;;9.20;72.69
41703;BME280;861;48.808;9.006;2023-04-07T03:07:18;96923.78;;;9.28;71.64
41703;BME280;861;48.808;9.006;2023-04-07T03:09:45;96924.44;;;9.07;72.48
41703;BME280;861;48.808;9.006;2023-04-07T03:12:12;96919.47;;;9.20;73.33
41703;BME280;861;48.808;9.006;2023-04-07T03:14:38;96921.66;;;9.00;73.91
41703;BME280;861;48.808;9.006;2023-04-07T03:17:05;96923.19;;;9.01;74.23
41703;BME280;861;48.808;9.006;2023-04-07T03:19:32;96912.81;;;9.10;73.34
41703;BME280;861;48.808;9.006;2023-04-07T03:21:58;96915.88;;;9.05;74.06
41703;BME280;861;48.808;9.006;2023-04-07T03:24:25;96914.78;;;9.17;72.89
41703;BME280;861;48.808;9.006;2023-04-07T03:26:52;96910.03;;;9.03;73.01
41703;BME280;861;48.808;9.006;2023-04-07T03:29:19;96907.53;;;8.81;73.77
41703;BME280;861;48.808;9.006;2023-04-07T03:31:45;96906.06;;;8.90;74.20
41703;BME280;861;48.808;9.006;2023-04-07T03:34:12;96903.78;;;8.96;73.69
41703;BME280;861;48.808;9.006;2023-04-07T03:36:39;96903.81;;;9.03;73.03
41703;BME280;861;48.808;9.006;2023-04-07T03:39:05;96905.41;;;9.07;72.65
41703;BME280;861;48.808;9.006;2023-04-07T03:41:32;96903.03;;;9.02;73.45
41703;BME280;861;48.808;9.006;2023-04-07T03:43:58;96901.47;;;8.98;72.83
41703;BME280;861;48.808;9.006;2023-04-07T03:46:26;96893.69;;;8.93;73.68
41703;BME280;861;48.808;9.006;2023-04-07T03:48:52;96895.78;;;9.20;73.03
41703;BME280;861;48.808;9.006;2023-04-07T03:51:20;96898.88;;;9.19;71.90
41703;BME280;861;48.808;9.006;2023-04-07T03:53:47;96903.03;;;9.02;73.19
41703;BME280;861;48.808;9.006;2023-04-07T03:56:14;96900.41;;;9.16;72.95
41703;BME280;861;48.808;9.006;2023-04-07T03:58:43;96888.56;;;8.84;74.49
41703;BME280;861;48.808;9.006;2023-04-07T04:01:12;96890.22;;;8.99;74.26
41703;BME280;861;48.808;9.006;2023-04-07T04:03:38;96899.63;;;9.16;72.86
41703;BME280;861;48.808;9.006;2023-04-07T04:06:05;96894.19;;;9.16;72.51
41703;BME280;861;48.808;9.006;2023-04-07T04:08:32;96896.88;;;9.12;72.74
41703;BME280;861;48.808;9.006;2023-04-07T04:14:31;96894.50;;;9.00;73.36
41703;BME280;861;48.808;9.006;2023-04-07T04:24:11;96885.97;;;9.02;73.38
41703;BME280;861;48.808;9.006;2023-04-07T04:26:37;96883.31;;;9.12;72.66
41703;BME280;861;48.808;9.006;2023-04-07T04:29:04;96886.88;;;9.20;72.73
41703;BME280;861;48.808;9.006;2023-04-07T04:31:31;96891.84;;;9.11;73.25
41703;BME280;861;48.808;9.006;2023-04-07T04:33:58;96882.03;;;8.92;73.22
41703;BME280;861;48.808;9.006;2023-04-07T04:36:24;96883.94;;;8.88;73.34
41703;BME280;861;48.808;9.006;2023-04-07T04:38:51;96874.22;;;8.87;73.56
41703;BME280;861;48.808;9.006;2023-04-07T04:41:17;96875.47;;;9.00;72.91
41703;BME280;861;48.808;9.006;2023-04-07T04:43:44;96870.47;;;9.09;72.20
41703;BME280;861;48.808;9.006;2023-04-07T04:46:11;96874.41;;;9.19;72.09
41703;BME280;861;48.808;9.006;2023-04-07T04:48:37;96878.25;;;9.11;72.70
41703;BME280;861;48.808;9.006;2023-04-07T04:51:04;96875.19;;;9.16;72.65
41703;BME280;861;48.808;9.006;2023-04-07T04:53:31;96898.84;;;9.15;72.07
41703;BME280;861;48.808;9.006;2023-04-07T04:55:57;96904.63;;;9.07;72.78
41703;BME280;861;48.808;9.006;2023-04-07T04:58:24;96900.03;;;9.18;72.77
41703;BME280;861;48.808;9.006;2023-04-07T05:00:53;96895.38;;;9.15;72.44
41703;BME280;861;48.808;9.006;2023-04-07T05:03:23;96889.84;;;9.04;72.62
41703;BME280;861;48.808;9.006;2023-04-07T05:05:53;96894.94;;;9.06;73.04
41703;BME280;861;48.808;9.006;2023-04-07T05:08:19;96890.69;;;9.15;72.84
41703;BME280;861;48.808;9.006;2023-04-07T05:10:46;96889.06;;;9.00;73.68
41703;BME280;861;48.808;9.006;2023-04-07T05:13:13;96885.09;;;8.84;73.58
41703;BME280;861;48.808;9.006;2023-04-07T05:15:41;96891.84;;;9.07;73.01
41703;BME280;861;48.808;9.006;2023-04-07T05:18:08;96895.28;;;9.01;72.68
41703;BME280;861;48.808;9.006;2023-04-07T05:20:34;96896.81;;;9.02;72.70
41703;BME280;861;48.808;9.006;2023-04-07T05:23:01;96894.63;;;9.21;72.39
41703;BME280;861;48.808;9.006;2023-04-07T05:25:28;96893.75;;;9.07;72.51
41703;BME280;861;48.808;9.006;2023-04-07T05:27:54;96896.84;;;9.05;73.13
41703;BME280;861;48.808;9.006;2023-04-07T05:30:21;96900.75;;;9.08;72.96
41703;BME280;861;48.808;9.006;2023-04-07T05:32:48;96891.44;;;9.12;72.99
41703;BME280;861;48.808;9.006;2023-04-07T05:35:14;96898.94;;;9.26;73.02
41703;BME280;861;48.808;9.006;2023-04-07T05:37:41;96893.75;;;9.07;73.47
41703;BME280;861;48.808;9.006;2023-04-07T05:40:08;96899.22;;;9.14;73.41
41703;BME280;861;48.808;9.006;2023-04-07T05:42:35;96896.91;;;9.16;73.69
41703;BME280;861;48.808;9.006;2023-04-07T05:45:02;96896.22;;;9.29;72.76
41703;BME280;861;48.808;9.006;2023-04-07T05:47:29;96896.22;;;9.33;72.47
41703;BME280;861;48.808;9.006;2023-04-07T05:49:56;96896.25;;;9.37;72.34
41703;BME280;861;48.808;9.006;2023-04-07T05:52:23;96893.13;;;9.34;72.46
41703;BME280;861;48.808;9.006;2023-04-07T05:54:49;96894.72;;;9.39;72.52
41703;BME280;861;48.808;9.006;2023-04-07T05:57:16;96891.66;;;9.48;72.52
41703;BME280;861;48.808;9.006;2023-04-07T05:59:43;96895.97;;;9.56;72.18
41703;BME280;861;48.808;9.006;2023-04-07T06:02:10;96895.22;;;9.62;71.25
41703;BME280;861;48.808;9.006;2023-04-07T06:04:36;96900.69;;;9.73;71.57
41703;BME280;861;48.808;9.006;2023-04-07T06:07:05;96898.00;;;9.80;71.46
41703;BME280;861;48.808;9.006;2023-04-07T06:09:32;96898.41;;;9.85;71.24
41703;BME280;861;48.808;9.006;2023-04-07T06:11:58;96896.44;;;9.82;71.00
41703;BME280;861;48.808;9.006;2023-04-07T06:14:26;96901.13;;;9.85;71.17
41703;BME280;861;48.808;9.006;2023-04-07T06:16:53;96902.31;;;9.95;70.75
41703;BME280;861;48.808;9.006;2023-04-07T06:19:19;96897.66;;;9.95;70.88
41703;BME280;861;48.808;9.006;2023-04-07T06:21:46;96900.00;;;9.97;70.75
41703;BME280;861;48.808;9.006;2023-04-07T06:24:12;96899.97;;;9.93;70.90
41703;BME280;861;48.808;9.006;2023-04-07T06:26:40;96903.50;;;9.94;70.88
41703;BME280;861;48.808;9.006;2023-04-07T06:29:06;96903.06;;;9.88;71.01
41703;BME280;861;48.808;9.006;2023-04-07T06:31:33;96908.13;;;9.83;70.85
41703;BME280;861;48.808;9.006;2023-04-07T06:33:59;96903.84;;;9.85;71.19
41703;BME280;861;48.808;9.006;2023-04-07T06:36:27;96901.88;;;9.82;71.66
41703;BME280;861;48.808;9.006;2023-04-07T06:38:54;96909.66;;;9.77;71.91
41703;BME280;861;48.808;9.006;2023-04-07T06:41:20;96903.09;;;9.92;71.12
41703;BME280;861;48.808;9.006;2023-04-07T06:43:49;96898.41;;;9.85;72.38
41703;BME280;861;48.808;9.006;2023-04-07T06:46:19;96904.28;;;10.05;71.79
41703;BME280;861;48.808;9.006;2023-04-07T06:48:46;96907.09;;;10.19;71.19
41703;BME280;861;48.808;9.006;2023-04-07T06:51:12;96904.34;;;10.08;71.63
41703;BME280;861;48.808;9.006;2023-04-07T06:53:39;96900.06;;;10.21;71.91
41703;BME280;861;48.808;9.006;2023-04-07T06:56:10;96898.56;;;10.41;71.99
41703;BME280;861;48.808;9.006;2023-04-07T06:58:38;96895.84;;;10.62;70.50
41703;BME280;861;48.808;9.006;2023-04-07T07:01:05;96889.63;;;10.65;70.07
41703;BME280;861;48.808;9.006;2023-04-07T07:03:32;96891.97;;;10.77;69.83
41703;BME280;861;48.808;9.006;2023-04-07T07:06:00;96890.41;;;10.66;69.80
41703;BME280;861;48.808;9.006;2023-04-07T07:08:28;96891.53;;;11.18;67.29
41703;BME280;861;48.808;9.006;2023-04-07T07:10:56;96893.47;;;11.21;67.88
41703;BME280;861;48.808;9.006;2023-04-07T07:13:25;96893.06;;;11.26;68.22
41703;BME280;861;48.808;9.006;2023-04-07T07:15:52;96893.84;;;11.23;68.01
41703;BME280;861;48.808;9.006;2023-04-07T07:18:19;96893.84;;;11.30;67.40
41703;BME280;861;48.808;9.006;2023-04-07T07:20:46;96888.34;;;11.44;66.97
41703;BME280;861;48.808;9.006;2023-04-07T07:23:13;96891.41;;;11.67;66.88
41703;BME280;861;48.808;9.006;2023-04-07T07:25:39;96897.28;;;11.55;66.11
41703;BME280;861;48.808;9.006;2023-04-07T07:28:06;96895.75;;;11.43;68.00
41703;BME280;861;48.808;9.006;2023-04-07T07:30:32;96896.50;;;11.47;66.03
41703;BME280;861;48.808;9.006;2023-04-07T07:32:59;96902.00;;;11.37;66.86
41703;BME280;861;48.808;9.006;2023-04-07T07:35:25;96901.66;;;11.14;67.57
41703;BME280;861;48.808;9.006;2023-04-07T07:37:52;96898.06;;;11.66;66.37
41703;BME280;861;48.808;9.006;2023-04-07T07:40:19;96892.09;;;11.92;64.41
41703;BME280;861;48.808;9.006;2023-04-07T07:42:46;96897.81;;;12.15;65.00
41703;BME280;861;48.808;9.006;2023-04-07T07:45:13;96891.13;;;12.26;63.69
41703;BME280;861;48.808;9.006;2023-04-07T07:47:40;96890.81;;;12.14;63.63
41703;BME280;861;48.808;9.006;2023-04-07T07:50:07;96893.38;;;12.38;64.65
41703;BME280;861;48.808;9.006;2023-04-07T07:52:34;96891.84;;;12.85;62.15
41703;BME280;861;48.808;9.006;2023-04-07T07:55:00;96893.69;;;12.51;62.39
41703;BME280;861;48.808;9.006;2023-04-07T07:57:27;96898.09;;;12.31;62.50
41703;BME280;861;48.808;9.006;2023-04-07T07:59:56;96904.03;;;12.19;63.33
41703;BME280;861;48.808;9.006;2023-04-07T08:02:22;96900.53;;;12.18;63.99
41703;BME280;861;48.808;9.006;2023-04-07T08:04:55;96901.41;;;11.98;64.04
41703;BME280;861;48.808;9.006;2023-04-07T08:07:22;96897.59;;;11.81;64.83
41703;BME280;861;48.808;9.006;2023-04-07T08:09:48;96892.91;;;11.82;64.63
41703;BME280;861;48.808;9.006;2023-04-07T08:12:15;96897.22;;;11.79;63.93
41703;BME280;861;48.808;9.006;2023-04-07T08:14:42;96901.81;;;11.93;62.99
41703;BME280;861;48.808;9.006;2023-04-07T08:17:08;96901.78;;;12.00;65.14
41703;BME280;861;48.808;9.006;2023-04-07T08:19:35;96907.38;;;12.44;63.12
41703;BME280;861;48.808;9.006;2023-04-07T08:22:01;96910.63;;;12.28;64.46
41703;BME280;861;48.808;9.006;2023-04-07T08:24:29;96914.13;;;12.84;62.14
41703;BME280;861;48.808;9.006;2023-04-07T08:26:55;96914.44;;;12.93;63.31
41703;BME280;861;48.808;9.006;2023-04-07T08:29:22;96917.25;;;12.86;62.30
41703;BME280;861;48.808;9.006;2023-04-07T08:31:48;96916.97;;;12.70;63.20
41703;BME280;861;48.808;9.006;2023-04-07T08:34:15;96914.91;;;12.84;62.91
41703;BME280;861;48.808;9.006;2023-04-07T08:36:42;96914.97;;;12.74;63.25
41703;BME280;861;48.808;9.006;2023-04-07T08:39:08;96914.56;;;12.75;63.23
41703;BME280;861;48.808;9.006;2023-04-07T08:41:39;96909.69;;;12.53;63.05
41703;BME280;861;48.808;9.006;2023-04-07T08:44:08;96913.44;;;12.69;63.82
41703;BME280;861;48.808;9.006;2023-04-07T08:46:38;96911.00;;;12.82;63.14
41703;BME280;861;48.808;9.006;2023-04-07T08:49:11;96901.63;;;13.67;59.34
41703;BME280;861;48.808;9.006;2023-04-07T08:51:46;96910.47;;;13.78;60.46
41703;BME280;861;48.808;9.006;2023-04-07T08:54:17;96911.22;;;14.43;59.63
41703;BME280;861;48.808;9.006;2023-04-07T08:56:45;96904.53;;;14.44;59.27
41703;BME280;861;48.808;9.006;2023-04-07T08:59:14;96904.72;;;14.33;59.80
41703;BME280;861;48.808;9.006;2023-04-07T09:01:43;96906.41;;;14.20;59.27
41703;BME280;861;48.808;9.006;2023-04-07T09:04:13;96908.06;;;14.44;57.75
41703;BME280;861;48.808;9.006;2023-04-07T09:06:40;96911.00;;;14.30;60.37
41703;BME280;861;48.808;9.006;2023-04-07T09:09:06;96915.97;;;14.39;61.50
41703;BME280;861;48.808;9.006;2023-04-07T09:11:38;96916.75;;;14.39;60.67
41703;BME280;861;48.808;9.006;2023-04-07T09:14:06;96915.28;;;14.58;58.50
41703;BME280;861;48.808;9.006;2023-04-07T09:16:33;96923.81;;;14.07;59.53
41703;BME280;861;48.808;9.006;2023-04-07T09:19:00;96925.41;;;13.74;60.18
41703;BME280;861;48.808;9.006;2023-04-07T09:21:48;96923.59;;;13.57;60.56
41703;BME280;861;48.808;9.006;2023-04-07T09:24:27;96924.41;;;13.17;61.65
41703;BME280;861;48.808;9.006;2023-04-07T09:27:19;96924.56;;;12.92;63.05
41703;BME280;861;48.808;9.006;2023-04-07T09:29:47;96921.91;;;13.33;61.76
41703;BME280;861;48.808;9.006;2023-04-07T09:32:37;96925.13;;;13.21;62.52
41703;BME280;861;48.808;9.006;2023-04-07T09:35:04;96920.47;;;13.21;62.05
41703;BME280;861;48.808;9.006;2023-04-07T09:37:31;96921.47;;;13.38;61.72
41703;BME280;861;48.808;9.006;2023-04-07T09:39:57;96923.41;;;13.74;60.26
41703;BME280;861;48.808;9.006;2023-04-07T09:42:25;96924.91;;;13.45;61.15
41703;BME280;861;48.808;9.006;2023-04-07T09:44:52;96913.84;;;13.56;59.39
41703;BME280;861;48.808;9.006;2023-04-07T09:47:26;96925.75;;;13.39;60.42
41703;BME280;861;48.808;9.006;2023-04-07T09:49:56;96929.16;;;13.09;63.49
41703;BME280;861;48.808;9.006;2023-04-07T09:52:49;96926.88;;;12.97;63.38
41703;BME280;861;48.808;9.006;2023-04-07T09:55:23;96927.75;;;12.87;64.68
41703;BME280;861;48.808;9.006;2023-04-07T09:57:52;96933.22;;;12.87;65.93
41703;BME280;861;48.808;9.006;2023-04-07T10:00:23;96921.81;;;13.03;64.83
41703;BME280;861;48.808;9.006;2023-04-07T10:02:51;96927.44;;;13.26;64.69
41703;BME280;861;48.808;9.006;2023-04-07T10:05:19;96922.84;;;13.56;64.73
41703;BME280;861;48.808;9.006;2023-04-07T10:07:49;96918.63;;;13.48;63.75
41703;BME280;861;48.808;9.006;2023-04-07T10:10:16;96921.41;;;13.04;65.57
41703;BME280;861;48.808;9.006;2023-04-07T10:12:44;96918.66;;;13.45;64.32
41703;BME280;861;48.808;9.006;2023-04-07T10:15:15;96923.28;;;13.51;64.07
41703;BME280;861;48.808;9.006;2023-04-07T10:17:47;96921.59;;;13.64;62.20
41703;BME280;861;48.808;9.006;2023-04-07T10:20:18;96913.00;;;13.96;60.42
41703;BME280;861;48.808;9.006;2023-04-07T10:22:50;96924.75;;;13.59;63.34
41703;BME280;861;48.808;9.006;2023-04-07T10:25:23;96915.66;;;13.69;62.23
41703;BME280;861;48.808;9.006;2023-04-07T10:28:02;96914.97;;;13.62;62.29
41703;BME280;861;48.808;9.006;2023-04-07T10:30:33;96925.63;;;13.87;61.82
41703;BME280;861;48.808;9.006;2023-04-07T10:33:01;96913.47;;;13.91;61.12
41703;BME280;861;48.808;9.006;2023-04-07T10:35:28;96916.25;;;13.84;61.49
41703;BME280;861;48.808;9.006;2023-04-07T10:38:33;96925.59;;;14.20;59.67
41703;BME280;861;48.808;9.006;2023-04-07T10:40:59;96921.63;;;14.25;59.02
41703;BME280;861;48.808;9.006;2023-04-07T10:43:46;96920.25;;;14.10;58.87
41703;BME280;861;48.808;9.006;2023-04-07T10:46:12;96920.88;;;13.91;58.56
41703;BME280;861;48.808;9.006;2023-04-07T10:48:39;96927.47;;;13.63;59.58
41703;BME280;861;48.808;9.006;2023-04-07T10:53:37;96921.28;;;13.55;60.02
41703;BME280;861;48.808;9.006;2023-04-07T10:59:30;96932.16;;;13.62;59.06
41703;BME280;861;48.808;9.006;2023-04-07T11:04:49;96928.47;;;13.76;58.62
41703;BME280;861;48.808;9.006;2023-04-07T11:07:16;96930.28;;;13.56;59.78
41703;BME280;861;48.808;9.006;2023-04-07T11:09:45;96933.31;;;13.24;60.40
41703;BME280;861;48.808;9.006;2023-04-07T11:12:29;96928.66;;;13.21;61.34
41703;BME280;861;48.808;9.006;2023-04-07T11:14:56;96931.44;;;13.14;61.14
41703;BME280;861;48.808;9.006;2023-04-07T11:17:24;96936.59;;;13.05;62.46
41703;BME280;861;48.808;9.006;2023-04-07T11:19:53;96930.63;;;13.21;62.93
41703;BME280;861;48.808;9.006;2023-04-07T11:22:21;96937.28;;;13.20;62.53
41703;BME280;861;48.808;9.006;2023-04-07T11:24:47;96937.59;;;13.25;62.34
41703;BME280;861;48.808;9.006;2023-04-07T11:27:15;96941.66;;;13.10;62.76
41703;BME280;861;48.808;9.006;2023-04-07T11:29:42;96941.63;;;13.14;62.45
41703;BME280;861;48.808;9.006;2023-04-07T11:32:10;96943.88;;;13.22;63.09
41703;BME280;861;48.808;9.006;2023-04-07T11:34:38;96948.72;;;13.08;63.62
41703;BME280;861;48.808;9.006;2023-04-07T11:37:24;96948.75;;;13.45;63.35
41703;BME280;861;48.808;9.006;2023-04-07T11:39:58;96949.53;;;13.45;63.22
41703;BME280;861;48.808;9.006;2023-04-07T11:42:33;96949.28;;;13.29;63.70
41703;BME280;861;48.808;9.006;2023-04-07T11:45:01;96954.69;;;13.36;64.50
41703;BME280;861;48.808;9.006;2023-04-07T11:47:39;96957.75;;;13.01;66.62
41703;BME280;861;48.808;9.006;2023-04-07T11:50:07;96954.72;;;12.85;65.85
41703;BME280;861;48.808;9.006;2023-04-07T11:52:48;96961.53;;;12.56;67.89
41703;BME280;861;48.808;9.006;2023-04-07T11:55:22;96966.66;;;12.51;70.34
41703;BME280;861;48.808;9.006;2023-04-07T11:57:52;96973.53;;;12.00;70.95
41703;BME280;861;48.808;9.006;2023-04-07T12:00:20;96966.56;;;11.82;71.69
41703;BME280;861;48.808;9.006;2023-04-07T12:02:47;96965.31;;;12.07;72.35
41703;BME280;861;48.808;9.006;2023-04-07T12:05:14;96970.75;;;12.14;72.06
41703;BME280;861;48.808;9.006;2023-04-07T12:07:53;96973.25;;;11.70;74.66
41703;BME280;861;48.808;9.006;2023-04-07T12:10:24;96977.50;;;11.61;75.44
41703;BME280;861;48.808;9.006;2023-04-07T12:12:53;96977.16;;;11.31;76.66
41703;BME280;861;48.808;9.006;2023-04-07T12:15:20;96970.56;;;11.28;76.01
41703;BME280;861;48.808;9.006;2023-04-07T12:17:48;96982.22;;;11.11;76.16
41703;BME280;861;48.808;9.006;2023-04-07T12:20:16;96977.94;;;11.21;76.66
41703;BME280;861;48.808;9.006;2023-04-07T12:22:43;96976.03;;;11.28;76.58
41703;BME280;861;48.808;9.006;2023-04-07T12:25:09;96977.56;;;11.33;76.60
41703;BME280;861;48.808;9.006;2023-04-07T12:27:36;96979.13;;;11.23;76.07
41703;BME280;861;48.808;9.006;2023-04-07T12:30:03;96982.66;;;11.06;78.45
41703;BME280;861;48.808;9.006;2023-04-07T12:32:30;96980.69;;;10.96;77.30
41703;BME280;861;48.808;9.006;2023-04-07T12:34:58;96984.94;;;10.79;78.11
41703;BME280;861;48.808;9.006;2023-04-07T12:37:25;96984.56;;;10.84;77.49
41703;BME280;861;48.808;9.006;2023-04-07T12:39:51;96992.31;;;10.51;78.52
41703;BME280;861;48.808;9.006;2023-04-07T12:42:18;96990.38;;;10.69;77.92
41703;BME280;861;48.808;9.006;2023-04-07T12:44:44;96984.19;;;10.79;76.06
41703;BME280;861;48.808;9.006;2023-04-07T12:47:11;96984.97;;;10.90;76.31
41703;BME280;861;48.808;9.006;2023-04-07T12:49:38;96986.50;;;11.37;74.84
41703;BME280;861;48.808;9.006;2023-04-07T12:52:04;96989.22;;;11.68;73.04
41703;BME280;861;48.808;9.006;2023-04-07T12:54:32;96987.22;;;11.76;74.07
41703;BME280;861;48.808;9.006;2023-04-07T12:56:59;96987.59;;;11.92;74.58
41703;BME280;861;48.808;9.006;2023-04-07T12:59:26;96988.78;;;11.87;73.28
41703;BME280;861;48.808;9.006;2023-04-07T13:01:53;96990.31;;;11.92;72.80
41703;BME280;861;48.808;9.006;2023-04-07T13:04:20;96995.72;;;12.02;72.19
41703;BME280;861;48.808;9.006;2023-04-07T13:06:47;96996.91;;;12.08;72.45
41703;BME280;861;48.808;9.006;2023-04-07T13:09:14;96993.31;;;12.18;72.21
41703;BME280;861;48.808;9.006;2023-04-07T13:11:41;96997.34;;;11.89;71.93
41703;BME280;861;48.808;9.006;2023-04-07T13:14:07;96995.84;;;11.64;72.66
41703;BME280;861;48.808;9.006;2023-04-07T13:16:34;96997.75;;;11.77;72.70
41703;BME280;861;48.808;9.006;2023-04-07T13:19:01;96994.59;;;11.93;72.76
41703;BME280;861;48.808;9.006;2023-04-07T13:21:29;96999.19;;;12.13;73.12
41703;BME280;861;48.808;9.006;2023-04-07T13:23:55;96989.00;;;12.31;71.06
41703;BME280;861;48.808;9.006;2023-04-07T13:26:22;96994.44;;;12.31;70.55
41703;BME280;861;48.808;9.006;2023-04-07T13:28:49;96990.19;;;12.30;71.10
41703;BME280;861;48.808;9.006;2023-04-07T13:31:16;96986.59;;;12.41;71.62
41703;BME280;861;48.808;9.006;2023-04-07T13:33:43;96984.97;;;12.50;70.21
41703;BME280;861;48.808;9.006;2023-04-07T13:36:10;96981.50;;;12.46;70.03
41703;BME280;861;48.808;9.006;2023-04-07T13:38:37;96987.31;;;12.48;70.84
41703;BME280;861;48.808;9.006;2023-04-07T13:41:03;96986.06;;;12.67;69.36
41703;BME280;861;48.808;9.006;2023-04-07T13:43:30;96985.63;;;12.72;69.69
41703;BME280;861;48.808;9.006;2023-04-07T13:45:56;96989.13;;;12.72;69.45
41703;BME280;861;48.808;9.006;2023-04-07T13:48:23;96977.44;;;12.72;69.64
41703;BME280;861;48.808;9.006;2023-04-07T13:50:49;96977.25;;;12.38;71.42
41703;BME280;861;48.808;9.006;2023-04-07T13:53:16;96978.41;;;12.41;70.61
41703;BME280;861;48.808;9.006;2023-04-07T13:55:43;96983.13;;;12.33;71.55
41703;BME280;861;48.808;9.006;2023-04-07T13:58:09;96978.81;;;12.39;72.75
41703;BME280;861;48.808;9.006;2023-04-07T14:00:36;96982.63;;;12.52;70.32
41703;BME280;861;48.808;9.006;2023-04-07T14:03:03;96982.66;;;12.45;69.80
41703;BME280;861;48.808;9.006;2023-04-07T14:05:30;96987.00;;;12.35;70.47